Time;durP1;ratioP1;P1;durP2;ratioP2;P2;SDS_P1;SDS_P2;PMS_P1;PMS_P2;Temp;Humidity;BMP_temperature;BMP_pressure;BME280_temperature;BME280_humidity;BME280_pressure;Samples;Min_cycle;Max_cycle;Signal;HPM_P1;HPM_P2
2022/04/03 00:09:39;;;;;;;;;;;;;;;21.67;45.11;99286.25;20697393;27;100626;-72
2022/04/03 00:19:40;;;;;;;;;;;;;;;21.67;45.58;99300.22;20698193;27;97118;-72
2022/04/03 00:29:40;;;;;;;;;;;;;;;21.65;45.23;99304.00;20700429;27;97306;-72
2022/04/03 00:39:41;;;;;;;;;;;;;;;21.63;45.32;99309.41;20673914;27;97559;-72
2022/04/03 00:49:41;;;;;;;;;;;;;;;21.62;45.35;99320.94;20692030;27;100614;-73
2022/04/03 00:59:42;;;;;;;;;;;;;;;21.61;45.18;99326.34;20686879;27;97907;-72
2022/04/03 01:09:42;;;;;;;;;;;;;;;21.56;45.18;99335.50;20676739;27;97158;-73
2022/04/03 01:19:43;;;;;;;;;;;;;;;21.56;45.26;99343.41;20678001;27;100290;-73
2022/04/03 01:29:43;;;;;;;;;;;;;;;21.54;45.10;99349.78;20683808;27;97825;-72
2022/04/03 01:39:44;;;;;;;;;;;;;;;21.52;45.41;99355.19;20620694;27;1988195;-73
2022/04/03 01:49:45;;;;;;;;;;;;;;;21.49;45.21;99358.09;20682886;27;99065;-72
2022/04/03 01:59:46;;;;;;;;;;;;;;;21.48;45.14;99363.53;20687044;27;100313;-73
2022/04/03 02:09:46;;;;;;;;;;;;;;;21.45;45.07;99369.91;20686384;27;102725;-75
2022/04/03 02:19:47;;;;;;;;;;;;;;;21.45;45.07;99388.34;20683918;27;97825;-73
2022/04/03 02:29:47;;;;;;;;;;;;;;;21.42;45.37;99391.25;20680364;27;98443;-73
2022/04/03 02:39:48;;;;;;;;;;;;;;;21.42;45.34;99412.34;20685492;27;97347;-72
2022/04/03 02:49:50;;;;;;;;;;;;;;;21.37;44.96;99417.22;20683143;27;98008;-72
2022/04/03 02:59:50;;;;;;;;;;;;;;;21.35;45.24;99429.69;20680483;27;100854;-72
2022/04/03 03:09:51;;;;;;;;;;;;;;;21.35;45.11;99434.94;20682595;27;98440;-74
2022/04/03 03:19:51;;;;;;;;;;;;;;;21.30;44.86;99448.56;20677493;27;98890;-73
2022/04/03 03:29:52;;;;;;;;;;;;;;;21.39;44.75;99466.13;20676448;27;98587;-73
2022/04/03 03:39:53;;;;;;;;;;;;;;;21.48;44.87;99477.59;20672395;27;100228;-74
2022/04/03 03:49:55;;;;;;;;;;;;;;;21.54;44.63;99478.84;20668235;27;100071;-73
2022/04/03 03:59:55;;;;;;;;;;;;;;;21.61;45.32;99500.22;20665929;27;98170;-73
2022/04/03 04:09:56;;;;;;;;;;;;;;;21.66;44.81;99513.78;20671898;27;97991;-73
2022/04/03 04:19:57;;;;;;;;;;;;;;;21.70;45.04;99520.41;20682656;27;98846;-73
2022/04/03 04:29:58;;;;;;;;;;;;;;;21.75;44.75;99540.09;20702328;27;98295;-73
2022/04/03 04:39:58;;;;;;;;;;;;;;;21.80;44.66;99559.91;20702217;27;96935;-73
2022/04/03 04:49:59;;;;;;;;;;;;;;;21.80;44.47;99571.31;20712046;27;98193;-73
2022/04/03 04:59:59;;;;;;;;;;;;;;;21.90;44.65;99598.44;20703088;27;100955;-72
2022/04/03 05:10:00;;;;;;;;;;;;;;;21.95;44.88;99598.03;20699158;27;98753;-73
2022/04/03 05:20:01;;;;;;;;;;;;;;;21.98;45.31;99608.28;20694575;27;97616;-73
2022/04/03 05:30:03;;;;;;;;;;;;;;;22.06;44.93;99628.66;20733914;27;98846;-74
2022/04/03 05:40:04;;;;;;;;;;;;;;;22.12;45.12;99636.00;20710938;27;98382;-74
2022/04/03 05:50:05;;;;;;;;;;;;;;;22.16;45.33;99655.81;20740789;27;100906;-73
2022/04/03 06:00:07;;;;;;;;;;;;;;;22.16;45.36;99668.19;20710963;27;98604;-75
2022/04/03 06:10:08;;;;;;;;;;;;;;;22.10;45.45;99680.13;20693272;27;97876;-74
2022/04/03 06:20:09;;;;;;;;;;;;;;;22.15;45.78;99683.16;20716336;27;96899;-75
2022/04/03 06:30:09;;;;;;;;;;;;;;;22.12;45.92;99694.00;20713993;27;100302;-74
2022/04/03 06:40:10;;;;;;;;;;;;;;;22.14;45.64;99713.16;20715842;27;97735;-74
2022/04/03 06:50:11;;;;;;;;;;;;;;;22.15;45.54;99727.16;20698247;27;102517;-74
2022/04/03 07:00:13;;;;;;;;;;;;;;;22.14;45.95;99750.06;20708952;27;98289;-74
2022/04/03 07:10:13;;;;;;;;;;;;;;;22.16;45.38;99760.47;20708500;27;97084;-74
2022/04/03 07:20:14;;;;;;;;;;;;;;;22.13;45.34;99780.06;20713733;27;100104;-74
2022/04/03 07:30:17;;;;;;;;;;;;;;;22.16;45.43;99797.38;20714861;27;97128;-73
2022/04/03 07:40:18;;;;;;;;;;;;;;;22.15;45.26;99815.00;20703943;27;104290;-74
2022/04/03 07:50:19;;;;;;;;;;;;;;;22.18;45.63;99834.97;20710135;27;97420;-73
2022/04/03 08:00:19;;;;;;;;;;;;;;;22.22;44.99;99858.31;20697676;27;104041;-75
2022/04/03 08:10:20;;;;;;;;;;;;;;;22.21;45.28;99861.91;20706471;27;97254;-73
2022/04/03 08:20:20;;;;;;;;;;;;;;;22.12;44.03;99861.91;20706439;27;100253;-73
2022/04/03 08:30:23;;;;;;;;;;;;;;;22.10;43.73;99880.50;20730399;27;99128;-71
2022/04/03 08:40:25;;;;;;;;;;;;;;;22.13;43.71;99874.97;20719103;27;97353;-72
2022/04/03 08:50:31;;;;;;;;;;;;;;;22.04;44.27;99897.69;20722230;27;96858;-73
2022/04/03 09:00:34;;;;;;;;;;;;;;;21.99;44.25;99910.47;20733729;27;97071;-75
2022/04/03 09:11:03;;;;;;;;;;;;;;;21.99;44.23;99915.72;20736989;27;97885;-74
2022/04/03 09:21:13;;;;;;;;;;;;;;;22.01;44.11;99924.34;20731582;27;98612;-72
2022/04/03 09:31:28;;;;;;;;;;;;;;;22.04;43.52;99931.97;20714496;27;97609;-72
2022/04/03 09:41:28;;;;;;;;;;;;;;;22.02;43.24;99936.56;20720588;27;97961;-73
2022/04/03 09:51:29;;;;;;;;;;;;;;;20.97;36.38;99942.00;20673838;27;99780;-72
2022/04/03 10:01:31;;;;;;;;;;;;;;;21.61;38.93;99940.19;20685746;27;99361;-74
2022/04/03 10:11:31;;;;;;;;;;;;;;;21.80;40.09;99944.69;20691674;27;97960;-75
2022/04/03 10:21:38;;;;;;;;;;;;;;;21.98;40.70;99945.69;20689322;27;97479;-75
2022/04/03 10:31:39;;;;;;;;;;;;;;;22.11;41.57;99955.19;20689572;27;98050;-75
2022/04/03 10:41:43;;;;;;;;;;;;;;;22.21;41.87;99977.13;20707664;27;96988;-75
2022/04/03 10:51:44;;;;;;;;;;;;;;;22.29;41.95;99969.38;20714850;27;98783;-75
2022/04/03 11:01:46;;;;;;;;;;;;;;;22.40;42.82;99989.56;20698576;27;97160;-73
2022/04/03 11:11:52;;;;;;;;;;;;;;;22.49;44.14;99991.34;20697714;27;98739;-73
2022/04/03 11:21:53;;;;;;;;;;;;;;;22.56;43.99;100004.84;20684559;27;97751;-74
2022/04/03 11:31:54;;;;;;;;;;;;;;;22.55;43.15;100008.44;20712926;27;96895;-75
2022/04/03 11:41:54;;;;;;;;;;;;;;;22.58;43.07;100026.63;20707370;27;96975;-75
2022/04/03 11:52:06;;;;;;;;;;;;;;;22.62;42.71;100030.69;20710511;27;97216;-74
2022/04/03 12:02:14;;;;;;;;;;;;;;;22.53;40.38;100047.31;20710338;27;97053;-74
2022/04/03 12:12:22;;;;;;;;;;;;;;;22.38;34.75;100047.69;20753948;27;98384;-75
2022/04/03 12:22:23;;;;;;;;;;;;;;;22.27;33.05;100050.44;20713185;27;97651;-75
2022/04/03 12:32:24;;;;;;;;;;;;;;;22.19;31.52;100045.84;20700865;27;98139;-78
2022/04/03 12:42:36;;;;;;;;;;;;;;;22.29;34.83;100048.50;20701201;27;97938;-76
2022/04/03 12:52:39;;;;;;;;;;;;;;;22.32;33.79;100045.56;20693976;27;100478;-75
2022/04/03 13:02:42;;;;;;;;;;;;;;;22.50;36.55;100047.63;20706986;27;97385;-75
2022/04/03 13:12:45;;;;;;;;;;;;;;;22.54;37.35;100031.38;20707869;27;97615;-75
2022/04/03 13:22:47;;;;;;;;;;;;;;;22.69;38.32;100031.81;20698192;27;97989;-75
2022/04/03 13:32:48;;;;;;;;;;;;;;;22.76;38.63;100053.19;20716164;27;97522;-76
2022/04/03 13:42:48;;;;;;;;;;;;;;;22.79;38.87;100050.28;20699726;27;97663;-76
2022/04/03 13:52:50;;;;;;;;;;;;;;;22.81;39.16;100044.88;20711982;27;97779;-76
2022/04/03 14:02:55;;;;;;;;;;;;;;;22.80;39.14;100062.53;20712186;27;98422;-75
2022/04/03 14:12:56;;;;;;;;;;;;;;;22.80;39.23;100061.66;20703737;27;98923;-76
2022/04/03 14:22:56;;;;;;;;;;;;;;;22.84;39.35;100069.19;20700204;27;99477;-76
2022/04/03 14:32:58;;;;;;;;;;;;;;;22.87;39.22;100076.00;20709699;27;97587;-75
2022/04/03 14:42:59;;;;;;;;;;;;;;;22.89;39.48;100079.34;20705002;27;97826;-76
2022/04/03 14:52:59;;;;;;;;;;;;;;;22.90;39.42;100082.81;20713282;27;97665;-76
2022/04/03 15:02:59;;;;;;;;;;;;;;;22.98;37.19;100086.41;20689773;27;101006;-76
2022/04/03 15:13:00;;;;;;;;;;;;;;;22.92;34.72;100094.06;20650530;27;99134;-75
2022/04/03 15:23:00;;;;;;;;;;;;;;;23.05;36.84;100107.00;20662395;27;97192;-75
2022/04/03 15:33:02;;;;;;;;;;;;;;;23.16;36.50;100110.38;20675476;27;97897;-78
2022/04/03 15:43:03;;;;;;;;;;;;;;;23.43;37.54;100124.69;20670904;27;97630;-75
2022/04/03 15:53:04;;;;;;;;;;;;;;;23.66;37.54;100141.06;20680705;27;98557;-76
2022/04/03 16:03:05;;;;;;;;;;;;;;;23.77;37.49;100144.56;20660005;27;98351;-76
2022/04/03 16:13:05;;;;;;;;;;;;;;;23.69;38.20;100160.28;20689787;27;98408;-74
2022/04/03 16:23:06;;;;;;;;;;;;;;;23.57;38.78;100175.44;20662911;27;101168;-74
2022/04/03 16:33:07;;;;;;;;;;;;;;;23.50;38.73;100188.41;20699716;27;98567;-74
2022/04/03 16:43:07;;;;;;;;;;;;;;;23.13;34.66;100200.44;20705256;27;97270;-75
2022/04/03 16:53:08;;;;;;;;;;;;;;;22.90;32.20;100226.22;20712472;27;99332;-76
2022/04/03 17:03:08;;;;;;;;;;;;;;;22.67;31.06;100244.88;20699915;27;98120;-76
2022/04/03 17:13:12;;;;;;;;;;;;;;;22.47;30.03;100265.06;20705406;27;99356;-76
2022/04/03 17:23:13;;;;;;;;;;;;;;;22.40;33.21;100274.47;20688816;27;97096;-76
2022/04/03 17:33:13;;;;;;;;;;;;;;;22.44;35.49;100290.88;20682891;27;99068;-77
2022/04/03 17:43:20;;;;;;;;;;;;;;;22.44;36.55;100302.25;20684179;27;101328;-76
2022/04/03 17:53:22;;;;;;;;;;;;;;;22.49;39.02;100325.63;20714827;27;97571;-77
2022/04/03 18:03:23;;;;;;;;;;;;;;;22.49;38.77;100339.63;20716000;27;101756;-79
2022/04/03 18:13:23;;;;;;;;;;;;;;;22.50;40.87;100358.97;20691046;27;97292;-76
2022/04/03 18:23:24;;;;;;;;;;;;;;;22.55;43.21;100383.97;20707504;27;97549;-77
2022/04/03 18:33:25;;;;;;;;;;;;;;;22.60;44.37;100403.88;20712545;27;97221;-77
2022/04/03 18:43:26;;;;;;;;;;;;;;;22.50;39.17;100417.00;20688811;27;97923;-76
2022/04/03 18:53:27;;;;;;;;;;;;;;;22.58;42.35;100419.81;20692682;27;100082;-76
2022/04/03 19:03:28;;;;;;;;;;;;;;;22.59;42.20;100426.78;20683304;27;97661;-76
2022/04/03 19:13:28;;;;;;;;;;;;;;;22.52;41.91;100444.09;20683452;27;98683;-75
2022/04/03 19:23:29;;;;;;;;;;;;;;;22.49;41.53;100449.63;20714748;27;101339;-75
2022/04/03 19:33:29;;;;;;;;;;;;;;;22.46;42.21;100457.78;20695153;27;97310;-77
2022/04/03 19:43:30;;;;;;;;;;;;;;;22.42;42.31;100465.13;20716689;27;97686;-76
2022/04/03 19:53:31;;;;;;;;;;;;;;;22.37;42.66;100460.19;20720368;27;97176;-76
2022/04/03 20:03:31;;;;;;;;;;;;;;;22.33;43.64;100471.94;20729901;27;97612;-77
2022/04/03 20:13:32;;;;;;;;;;;;;;;22.31;43.27;100481.78;20739146;27;96922;-76
2022/04/03 20:23:33;;;;;;;;;;;;;;;22.28;43.50;100489.97;20737040;27;97323;-75
2022/04/03 20:33:33;;;;;;;;;;;;;;;22.28;43.61;100507.59;20728792;27;101899;-78
2022/04/03 20:43:34;;;;;;;;;;;;;;;22.24;43.45;100509.63;20710367;27;97161;-76
2022/04/03 20:53:34;;;;;;;;;;;;;;;22.22;43.85;100527.38;20701843;27;97259;-78
2022/04/03 21:03:35;;;;;;;;;;;;;;;22.17;43.37;100533.00;20687567;27;98030;-75
2022/04/03 21:13:36;;;;;;;;;;;;;;;22.13;43.63;100542.13;20686480;27;98115;-76
2022/04/03 21:23:36;;;;;;;;;;;;;;;22.12;43.65;100543.09;20695424;27;100556;-76
2022/04/03 21:33:37;;;;;;;;;;;;;;;22.08;43.58;100554.81;20693388;27;97652;-77
2022/04/03 21:43:38;;;;;;;;;;;;;;;22.04;43.17;100559.50;20692534;27;97700;-78
2022/04/03 21:53:39;;;;;;;;;;;;;;;21.99;43.80;100566.94;20693540;27;101610;-77
2022/04/03 22:03:39;;;;;;;;;;;;;;;21.94;43.70;100584.09;20678293;27;97093;-78
2022/04/03 22:13:40;;;;;;;;;;;;;;;21.92;43.61;100586.81;20686605;27;97502;-78
2022/04/03 22:23:40;;;;;;;;;;;;;;;21.93;43.54;100600.88;20683434;27;97730;-75
2022/04/03 22:33:42;;;;;;;;;;;;;;;21.89;43.37;100616.09;20688997;27;97663;-77
2022/04/03 22:43:43;;;;;;;;;;;;;;;21.86;43.45;100622.44;20673616;27;97771;-76
2022/04/03 22:53:43;;;;;;;;;;;;;;;21.82;43.52;100622.78;20688531;27;101015;-76
2022/04/03 23:03:43;;;;;;;;;;;;;;;21.80;43.23;100616.78;20686087;27;98346;-76
2022/04/03 23:13:44;;;;;;;;;;;;;;;21.79;43.45;100610.69;20693885;27;100429;-77
2022/04/03 23:23:44;;;;;;;;;;;;;;;21.78;43.29;100616.06;20694401;27;97364;-75
2022/04/03 23:33:45;;;;;;;;;;;;;;;21.74;43.28;100626.00;20691022;27;97610;-75
2022/04/03 23:43:45;;;;;;;;;;;;;;;21.72;43.13;100618.19;20692886;27;97929;-75
2022/04/03 23:53:46;;;;;;;;;;;;;;;21.70;43.20;100625.41;20695482;27;97743;-76
